Terminal Aerodrome Forecast
Issued by NWS Green Bay, WI

Home | Current Version | Previous Version | Graphics & Text | Print | Product List | Glossary On
Versions: 1 2 3 4 5 6 7 8 9 10 11 12 13 14 15 16 17 18 19 20 21 22 23 24 25 26 27 28
000
FTUS43 KGRB 061723
TAFGRB
TAF
KGRB 061723Z 0618/0718 22008KT P6SM SCT120 SCT250
     FM070200 21007KT P6SM SCT140 BKN250 WS015/26035KT PROB30
      0705/0708 -TSRA BKN060CB BKN120
     FM070800 35014G22KT P6SM VCSH BKN060
     FM071100 35011KT P6SM SCT060 BKN120
     FM071400 35012G18KT P6SM SCT120 SCT250=

USA.gov is the U.S. government's official web portal to all federal, state and local government web resources and services.